Terminal Aerodrome Forecast
Issued by NWS Louisville, KY

Home | Current Version | Previous Version | Text Only | Print | Product List | Glossary On
Versions: 1 2 3 4 5 6 7 8 9 10 11 12 13 14 15 16 17 18 19 20 21 22
902
FTUS43 KLMK 201130
TAFBWG
TAF
KBWG 201130Z 2012/2112 18012KT P6SM SCT250 WS020/20045KT
     FM201500 19019G30KT P6SM FEW070 SCT250
     FM210000 18012G22KT P6SM SCT030 BKN070
     FM211000 19011KT P6SM BKN025 PROB30 2110/2112 4SM -SHRA OVC015=

USA.gov is the U.S. government's official web portal to all federal, state and local government web resources and services.